Terminal Aerodrome Forecast
Issued by NWS Dallas/Fort Worth, TX

Home | Current Version | Previous Version | Text Only | Print | Product List | Glossary On
Versions: 1 2 3 4 5 6 7 8 9 10 11 12 13 14 15 16 17 18 19 20 21 22 23 24 25 26 27 28 29 30 31 32 33 34 35 36 37 38 39
000
FTUS44 KFWD 301123 AAD
TAFDFW
TAF AMD
KDFW 301123Z 3011/3112 31025G35KT 2SM +TSRA OVC015CB
     FM301215 32010KT 5SM -TSRA BKN020CB OVC060
     FM301300 33012KT P6SM -RA VCTS BKN060CB OVC110
     FM301400 33008KT P6SM VCSH BKN080
     FM301800 36009KT P6SM BKN150
     FM310200 01006KT P6SM SCT250=

USA.gov is the U.S. government's official web portal to all federal, state and local government web resources and services.